This is the latest recevied weather packets stored in our database for station/object OE-11138. If no packets are shown the sender has not sent any weather packets the latest 10 day(s).
| Time | Temp. | Humidity | Pressure | Rain* | Wind** | Luminosity | Snow |
|---|---|---|---|---|---|---|---|
| 1788636325 | 7.78° C | 95% | 720.4 hPa | 0 mm | - | 0 W/m² | - |
| 1788635499 | 8.33° C | 96% | 720.3 hPa | 0 mm | - | 0 W/m² | - |
| 1788635125 | 8.33° C | 96% | 720.3 hPa | 0 mm | - | 0 W/m² | - |
| 1788634525 | 8.33° C | 97% | 720.2 hPa | 0 mm | - | 0 W/m² | - |
| 1788633325 | 8.33° C | 97% | 720.2 hPa | 0 mm | - | 0 W/m² | - |
| 1788632725 | 8.33° C | 97% | 719.9 hPa | 0 mm | - | 0 W/m² | - |
| 1788631898 | 8.33° C | 96% | 719.9 hPa | 0 mm | - | 0 W/m² | - |
| 1788630925 | 8.89° C | 85% | 719.9 hPa | 0 mm | - | 6 W/m² | - |
| 1788629725 | 8.89° C | 90% | 719.9 hPa | 0 mm | - | 24 W/m² | - |
| 1788629125 | 8.89° C | 91% | 719.9 hPa | 0 mm | - | 24 W/m² | - |
| 1788628299 | 8.89° C | 94% | 719.9 hPa | 0.25 mm | - | 24 W/m² | - |
| 1788627925 | 8.33° C | 95% | 720 hPa | 1.02 mm | - | 36 W/m² | - |
| 1788626125 | 8.89° C | 95% | 719.7 hPa | 1.52 mm | - | 30 W/m² | - |
| 1788625525 | 9.44° C | 92% | 719.8 hPa | 1.52 mm | - | 49 W/m² | - |
| 1788624325 | 8.89° C | 96% | 719.6 hPa | 1.52 mm | - | 24 W/m² | - |
| 1788621925 | 9.44° C | 93% | 719.6 hPa | 0 mm | - | 18 W/m² | - |
| 1788621098 | 9.44° C | 92% | 719.7 hPa | 0 mm | - | 67 W/m² | - |
| 1788620125 | 9.44° C | 93% | 719.6 hPa | 0 mm | - | 67 W/m² | - |
| 1788619298 | 10° C | 92% | 719.6 hPa | 0 mm | - | 18 W/m² | - |
| 1788618925 | 10.56° C | 89% | 719.7 hPa | 0 mm | - | 67 W/m² | - |
| 1788618325 | 10.56° C | 86% | 719.6 hPa | 0 mm | - | 231 W/m² | - |
| 1788617498 | 11.11° C | 82% | 719.6 hPa | 0 mm | - | 279 W/m² | - |
| 1788617125 | 11.11° C | 83% | 719.6 hPa | 0 mm | - | 291 W/m² | - |
| 1788616525 | 11.11° C | 83% | 719.5 hPa | 0 mm | - | 267 W/m² | - |
| 1788615698 | 11.67° C | 77% | 719.7 hPa | 0 mm | - | 316 W/m² | - |
* Rain latest hour (hover to see other rain measurements)
** Current wind speed in m/s (hover to see current wind gust speed)